Time;durP1;ratioP1;P1;durP2;ratioP2;P2;SDS_P1;SDS_P2;PMS_P1;PMS_P2;Temp;Humidity;BMP_temperature;BMP_pressure;BME280_temperature;BME280_humidity;BME280_pressure;Samples;Min_cycle;Max_cycle;Signal;HPM_P1;HPM_P2
2022/03/14 00:02:10;;;;;;;20.30;19.40;;;8.20;73.30;;;;;;4955271;28;20051;-90
2022/03/14 00:04:38;;;;;;;21.33;20.33;;;8.10;73.30;;;;;;4942237;28;20046;-90
2022/03/14 00:07:05;;;;;;;20.38;19.48;;;8.10;73.40;;;;;;4973984;28;20495;-92
2022/03/14 00:09:31;;;;;;;21.30;20.25;;;8.10;73.40;;;;;;4971288;28;20035;-89
2022/03/14 00:11:57;;;;;;;21.25;20.15;;;8.00;73.40;;;;;;4968046;28;20395;-90
2022/03/14 00:14:26;;;;;;;20.58;19.58;;;8.00;73.40;;;;;;4968506;28;20023;-90
2022/03/14 00:16:55;;;;;;;20.48;19.33;;;8.00;73.50;;;;;;4936112;28;20044;-90
2022/03/14 00:19:22;;;;;;;22.38;21.10;;;8.00;73.50;;;;;;4955588;28;20031;-90
2022/03/14 00:21:49;;;;;;;21.10;20.10;;;7.90;73.50;;;;;;4971637;28;20043;-89
2022/03/14 00:24:15;;;;;;;20.90;19.88;;;7.90;73.70;;;;;;4970630;28;20101;-90
2022/03/14 00:26:41;;;;;;;19.95;18.95;;;7.80;73.70;;;;;;4972350;28;20022;-91
2022/03/14 00:29:08;;;;;;;20.80;19.80;;;7.80;73.60;;;;;;4970800;28;20047;-91
2022/03/14 00:31:34;;;;;;;20.23;19.23;;;7.80;73.70;;;;;;4972487;28;20037;-90
2022/03/14 00:34:00;;;;;;;20.48;19.48;;;7.80;73.80;;;;;;4953351;28;20038;-91
2022/03/14 00:36:27;;;;;;;20.30;19.40;;;7.80;73.70;;;;;;4972077;28;20411;-91
2022/03/14 00:38:53;;;;;;;19.42;18.52;;;7.80;73.70;;;;;;4970396;28;20043;-92
2022/03/14 00:41:20;;;;;;;20.05;19.15;;;7.80;73.80;;;;;;4971764;28;20041;-90
2022/03/14 00:43:46;;;;;;;20.70;19.70;;;7.70;73.70;;;;;;4939897;28;20062;-91
2022/03/14 00:46:14;;;;;;;23.45;21.38;;;7.70;73.70;;;;;;4953980;28;20039;-91
2022/03/14 00:48:40;;;;;;;19.98;19.00;;;7.70;73.70;;;;;;4956888;28;20507;-89
2022/03/14 00:51:06;;;;;;;21.50;20.30;;;7.70;73.70;;;;;;4971356;28;20035;-90
2022/03/14 00:53:32;;;;;;;20.92;19.90;;;7.60;73.80;;;;;;4956097;28;20053;-90
2022/03/14 00:55:59;;;;;;;20.15;19.25;;;7.60;73.90;;;;;;4974158;28;20042;-90
2022/03/14 00:58:26;;;;;;;19.67;18.77;;;7.50;74.00;;;;;;4953392;28;20031;-90
2022/03/14 01:00:52;;;;;;;21.05;19.83;;;7.50;74.20;;;;;;4969867;28;20484;-89
2022/03/14 01:03:18;;;;;;;21.38;20.35;;;7.40;74.20;;;;;;4969036;28;20047;-91
2022/03/14 01:05:44;;;;;;;20.95;19.85;;;7.40;74.20;;;;;;4946639;28;20046;-90
2022/03/14 01:08:11;;;;;;;19.13;18.23;;;7.40;74.20;;;;;;4954245;28;20035;-90
2022/03/14 01:10:37;;;;;;;20.95;19.67;;;7.40;74.10;;;;;;4956677;28;20050;-91
2022/03/14 01:13:04;;;;;;;19.45;18.55;;;7.50;74.20;;;;;;4939941;28;20046;-91
2022/03/14 01:15:32;;;;;;;19.65;18.75;;;7.50;74.90;;;;;;4970106;28;20050;-91
2022/03/14 01:17:59;;;;;;;19.60;18.70;;;7.40;74.10;;;;;;4954298;28;20031;-92
2022/03/14 01:20:25;;;;;;;19.25;18.35;;;7.50;74.20;;;;;;4970916;28;20472;-90
2022/03/14 01:22:54;;;;;;;18.83;17.95;;;7.50;74.20;;;;;;4970921;28;20515;-90
2022/03/14 01:25:21;;;;;;;19.63;18.73;;;7.60;74.20;;;;;;4954160;28;20054;-90
2022/03/14 01:27:47;;;;;;;20.38;19.33;;;7.50;74.00;;;;;;4969542;28;20034;-90
2022/03/14 01:30:15;;;;;;;19.23;18.33;;;7.60;74.10;;;;;;4970975;28;20045;-90
2022/03/14 01:32:41;;;;;;;19.38;18.48;;;7.60;74.10;;;;;;4970067;28;20026;-89
2022/03/14 01:35:07;;;;;;;19.25;18.35;;;7.60;74.10;;;;;;4971186;28;20499;-89
2022/03/14 01:37:34;;;;;;;19.55;18.65;;;7.50;74.20;;;;;;4933183;29;20050;-90
2022/03/14 01:40:00;;;;;;;20.08;19.17;;;7.50;74.30;;;;;;4967554;28;20034;-89
2022/03/14 01:42:26;;;;;;;20.05;19.15;;;7.50;74.40;;;;;;4968874;28;20475;-90
2022/03/14 01:44:52;;;;;;;20.10;19.20;;;7.50;74.40;;;;;;4969215;28;20035;-90
2022/03/14 01:47:18;;;;;;;19.77;18.88;;;7.40;74.40;;;;;;4969438;28;20046;-90
2022/03/14 01:49:45;;;;;;;19.75;18.85;;;7.40;74.60;;;;;;4968075;28;20035;-89
2022/03/14 01:52:11;;;;;;;19.42;18.52;;;7.40;74.80;;;;;;4970748;28;20043;-90
2022/03/14 01:54:38;;;;;;;19.35;18.45;;;7.40;74.80;;;;;;4969550;28;20033;-90
2022/03/14 01:57:07;;;;;;;19.92;19.02;;;7.40;74.70;;;;;;4942031;28;20503;-90
2022/03/14 01:59:33;;;;;;;20.95;19.88;;;7.40;74.80;;;;;;4969952;28;20057;-89
2022/03/14 02:02:00;;;;;;;17.98;17.17;;;7.40;74.70;;;;;;4972280;28;20042;-89
2022/03/14 02:04:26;;;;;;;18.17;17.38;;;7.40;74.70;;;;;;4953669;28;20050;-90
2022/03/14 02:06:53;;;;;;;19.45;18.55;;;7.40;74.60;;;;;;4968603;28;20035;-92
2022/03/14 02:09:20;;;;;;;18.90;18.00;;;7.40;74.60;;;;;;4954967;28;20042;-90
2022/03/14 02:12:09;;;;;;;18.15;17.35;;;7.40;74.60;;;;;;4970706;28;20031;-91
2022/03/14 02:14:39;;;;;;;18.55;17.70;;;7.40;74.60;;;;;;4973281;28;20043;-90
2022/03/14 02:17:08;;;;;;;18.63;17.70;;;7.40;74.60;;;;;;4969456;28;20038;-90
2022/03/14 02:19:35;;;;;;;18.00;17.20;;;7.40;74.60;;;;;;4973103;28;20038;-90
2022/03/14 02:22:04;;;;;;;18.48;17.65;;;7.40;74.60;;;;;;4939350;28;20051;-89
2022/03/14 02:24:31;;;;;;;18.52;17.63;;;7.30;74.60;;;;;;4984871;28;20051;-92
2022/03/14 02:26:57;;;;;;;18.38;17.55;;;7.40;74.70;;;;;;4952834;28;20034;-88
2022/03/14 02:29:26;;;;;;;18.75;17.75;;;7.30;74.70;;;;;;4969051;28;20023;-89
2022/03/14 02:31:52;;;;;;;19.35;18.40;;;7.30;74.70;;;;;;4955936;28;20035;-89
2022/03/14 02:34:19;;;;;;;18.85;17.95;;;7.30;74.70;;;;;;4970787;28;20031;-89
2022/03/14 02:36:45;;;;;;;18.33;17.47;;;7.20;74.70;;;;;;4943011;28;20041;-89
2022/03/14 02:39:12;;;;;;;17.73;16.92;;;7.20;74.80;;;;;;4973123;28;20050;-90
2022/03/14 02:41:38;;;;;;;18.80;17.90;;;7.10;74.90;;;;;;4973800;28;20824;-91
2022/03/14 02:44:08;;;;;;;18.10;17.20;;;7.10;74.90;;;;;;4974157;28;20046;-90
2022/03/14 02:46:38;;;;;;;18.40;17.60;;;7.00;74.90;;;;;;4958831;28;20049;-90
2022/03/14 02:49:05;;;;;;;18.63;17.73;;;7.10;75.00;;;;;;4971338;28;20034;-90
2022/03/14 02:51:34;;;;;;;18.65;17.75;;;7.10;74.90;;;;;;4958653;28;20041;-89
2022/03/14 02:54:02;;;;;;;18.83;17.92;;;7.10;75.00;;;;;;4973485;28;20444;-90
2022/03/14 02:56:28;;;;;;;17.88;17.08;;;7.00;74.90;;;;;;4958010;28;20045;-90
2022/03/14 02:58:54;;;;;;;19.55;18.60;;;7.00;75.00;;;;;;4974172;28;20039;-89
2022/03/14 03:01:21;;;;;;;18.30;17.50;;;7.00;75.00;;;;;;4956434;28;20038;-91
2022/03/14 03:03:48;;;;;;;18.60;17.75;;;7.00;75.00;;;;;;4951558;28;20522;-90
2022/03/14 03:06:15;;;;;;;18.60;17.67;;;7.00;75.00;;;;;;4953164;28;20038;-90
2022/03/14 03:08:44;;;;;;;18.63;17.73;;;7.00;75.00;;;;;;4968625;28;20041;-92
2022/03/14 03:11:11;;;;;;;17.85;17.05;;;7.10;75.00;;;;;;4971918;28;20397;-91
2022/03/14 03:13:41;;;;;;;17.98;17.17;;;7.00;74.90;;;;;;4971178;28;20501;-90
2022/03/14 03:16:08;;;;;;;17.75;16.95;;;7.00;75.00;;;;;;4970369;28;20381;-91
2022/03/14 03:18:35;;;;;;;17.98;17.17;;;7.00;75.10;;;;;;4966770;28;20389;-89
2022/03/14 03:21:01;;;;;;;18.90;18.00;;;7.00;75.20;;;;;;4953338;28;20048;-91
2022/03/14 03:23:28;;;;;;;18.40;17.60;;;6.90;75.20;;;;;;4971657;28;20528;-91
2022/03/14 03:25:54;;;;;;;19.10;18.20;;;6.90;75.40;;;;;;4973821;28;20031;-89
2022/03/14 03:28:20;;;;;;;19.25;18.25;;;6.90;75.50;;;;;;4971106;28;20488;-90
2022/03/14 03:30:46;;;;;;;18.17;17.35;;;6.90;75.60;;;;;;4937344;28;20202;-89
2022/03/14 03:33:13;;;;;;;18.87;17.97;;;6.90;75.70;;;;;;4969091;28;20038;-90
2022/03/14 03:35:39;;;;;;;18.67;17.77;;;6.90;75.70;;;;;;4937617;28;20507;-90
2022/03/14 03:38:05;;;;;;;18.73;17.83;;;6.90;75.60;;;;;;4972892;28;20050;-90
2022/03/14 03:40:31;;;;;;;17.98;17.17;;;6.90;75.50;;;;;;4974166;28;20475;-90
2022/03/14 03:42:57;;;;;;;17.80;17.00;;;6.90;75.50;;;;;;4987662;28;20053;-91
2022/03/14 03:45:24;;;;;;;18.27;17.47;;;6.90;75.60;;;;;;4971046;28;20043;-89
2022/03/14 03:47:50;;;;;;;18.20;17.30;;;6.90;75.70;;;;;;4973446;28;20498;-90
2022/03/14 03:50:17;;;;;;;18.05;17.25;;;6.80;75.60;;;;;;4989220;28;21446;-90
2022/03/14 03:52:44;;;;;;;17.50;16.70;;;6.90;75.70;;;;;;4973348;28;20039;-90
2022/03/14 03:55:10;;;;;;;17.97;17.17;;;6.80;75.60;;;;;;4970347;28;20474;-90
2022/03/14 03:57:36;;;;;;;17.03;16.23;;;6.80;75.70;;;;;;4970668;28;20026;-91
2022/03/14 04:00:07;;;;;;;18.23;17.42;;;6.80;75.60;;;;;;4971812;28;20031;-90
2022/03/14 04:02:39;;;;;;;18.65;17.63;;;6.80;75.60;;;;;;4955473;28;20507;-92
2022/03/14 04:05:05;;;;;;;18.00;17.20;;;6.80;75.60;;;;;;4977668;28;20399;-91
2022/03/14 04:07:32;;;;;;;18.52;17.50;;;6.80;75.70;;;;;;4957248;28;20042;-91
2022/03/14 04:09:59;;;;;;;17.57;16.67;;;6.70;75.70;;;;;;4973978;28;20041;-91
2022/03/14 04:12:28;;;;;;;17.53;16.73;;;6.70;75.70;;;;;;4955767;28;20031;-91
2022/03/14 04:14:58;;;;;;;17.17;16.37;;;6.70;75.80;;;;;;4954928;28;20027;-92
2022/03/14 04:17:28;;;;;;;17.53;16.73;;;6.60;75.90;;;;;;4970017;28;20027;-90
2022/03/14 04:19:54;;;;;;;18.10;17.30;;;6.60;76.10;;;;;;4988555;28;20054;-91
2022/03/14 04:22:20;;;;;;;18.10;17.30;;;6.60;76.10;;;;;;4956330;28;20031;-89
2022/03/14 04:24:46;;;;;;;17.40;16.60;;;6.50;76.00;;;;;;4953723;28;20404;-91
2022/03/14 04:27:12;;;;;;;17.55;16.75;;;6.60;76.10;;;;;;4969950;28;20042;-91
2022/03/14 04:29:39;;;;;;;18.57;17.67;;;6.50;76.00;;;;;;4969632;28;20053;-91
2022/03/14 04:32:05;;;;;;;19.00;18.10;;;6.50;76.20;;;;;;4970897;28;20035;-90
2022/03/14 04:34:32;;;;;;;19.00;18.10;;;6.50;76.10;;;;;;4974002;28;20116;-91
2022/03/14 04:36:59;;;;;;;18.77;17.87;;;6.50;76.00;;;;;;4969790;28;20061;-92
2022/03/14 04:39:25;;;;;;;17.73;16.93;;;6.50;76.00;;;;;;4978365;28;20038;-91
2022/03/14 04:41:51;;;;;;;18.60;17.73;;;6.60;76.10;;;;;;4972445;28;20038;-92
2022/03/14 04:44:19;;;;;;;18.87;17.97;;;6.60;76.10;;;;;;4974994;28;20050;-84
2022/03/14 04:46:45;;;;;;;18.23;17.43;;;6.50;76.00;;;;;;4956839;28;20034;-85
2022/03/14 04:49:13;;;;;;;18.30;17.50;;;6.50;76.00;;;;;;4968556;28;20042;-86
2022/03/14 04:51:39;;;;;;;17.73;16.93;;;6.50;76.00;;;;;;4953463;28;20027;-86
2022/03/14 04:54:06;;;;;;;18.03;17.23;;;6.50;76.00;;;;;;4968056;28;20026;-86
2022/03/14 04:56:32;;;;;;;18.20;17.40;;;6.50;76.00;;;;;;4972125;28;20035;-84
2022/03/14 04:58:59;;;;;;;18.27;17.48;;;6.60;76.10;;;;;;4955452;28;20039;-85
2022/03/14 05:01:25;;;;;;;18.52;17.60;;;6.60;76.00;;;;;;4955175;28;20035;-85
2022/03/14 05:03:52;;;;;;;17.58;16.77;;;6.50;75.80;;;;;;4951325;28;20055;-86
2022/03/14 05:06:21;;;;;;;17.70;16.80;;;6.50;75.90;;;;;;4955362;28;20353;-88
2022/03/14 05:08:47;;;;;;;17.60;16.80;;;6.50;75.90;;;;;;4972391;28;20038;-86
2022/03/14 05:11:14;;;;;;;17.37;16.57;;;6.50;75.90;;;;;;4970534;28;20381;-86
2022/03/14 05:13:41;;;;;;;17.83;17.03;;;6.50;75.90;;;;;;4973100;28;20035;-86
2022/03/14 05:16:07;;;;;;;16.67;15.87;;;6.50;75.90;;;;;;4954792;28;20043;-86
2022/03/14 05:18:34;;;;;;;17.77;16.97;;;6.50;75.90;;;;;;4955558;28;20042;-84
2022/03/14 05:21:01;;;;;;;16.97;16.17;;;6.50;75.90;;;;;;4955874;28;20035;-85
2022/03/14 05:23:28;;;;;;;17.40;16.60;;;6.40;75.90;;;;;;4955665;28;20038;-85
2022/03/14 05:25:55;;;;;;;17.08;16.27;;;6.40;76.00;;;;;;4972460;28;20038;-85
2022/03/14 05:28:21;;;;;;;17.57;16.70;;;6.40;75.90;;;;;;4954049;28;20057;-85
2022/03/14 05:30:47;;;;;;;17.97;17.07;;;6.40;75.90;;;;;;4970809;28;20035;-84
2022/03/14 05:33:14;;;;;;;17.90;17.00;;;6.40;76.00;;;;;;4971381;28;20471;-85
2022/03/14 05:35:40;;;;;;;17.33;16.53;;;6.30;75.90;;;;;;4971433;28;20035;-85
2022/03/14 05:38:06;;;;;;;18.13;17.33;;;6.30;75.90;;;;;;4971330;28;20062;-84
2022/03/14 05:40:32;;;;;;;17.97;17.17;;;6.30;75.90;;;;;;4939018;28;20047;-86
2022/03/14 05:42:58;;;;;;;17.70;16.90;;;6.30;75.90;;;;;;4954831;28;20039;-85
2022/03/14 05:45:24;;;;;;;18.20;17.30;;;6.20;75.80;;;;;;4954831;28;20046;-84
2022/03/14 05:47:51;;;;;;;17.87;16.87;;;6.20;75.80;;;;;;4955623;28;20423;-84
2022/03/14 05:50:17;;;;;;;18.27;17.27;;;6.20;75.80;;;;;;4957635;28;20045;-84
2022/03/14 05:52:43;;;;;;;17.92;17.02;;;6.20;75.80;;;;;;4972859;28;20034;-84
2022/03/14 05:55:10;;;;;;;17.63;16.80;;;6.20;75.80;;;;;;4969598;28;20046;-90
2022/03/14 05:57:36;;;;;;;17.70;16.90;;;6.20;75.90;;;;;;4954649;28;20035;-89
2022/03/14 06:00:04;;;;;;;17.33;16.53;;;6.10;75.90;;;;;;4939646;28;20042;-89
2022/03/14 06:02:30;;;;;;;18.53;17.67;;;6.10;75.90;;;;;;4955524;28;20043;-92
2022/03/14 06:04:56;;;;;;;18.33;17.53;;;6.10;75.80;;;;;;4972054;28;20119;-91
2022/03/14 06:07:22;;;;;;;17.50;16.70;;;6.10;76.00;;;;;;4940457;28;20049;-92
2022/03/14 06:09:49;;;;;;;18.23;17.10;;;6.00;76.00;;;;;;4952036;28;20046;-91
2022/03/14 06:12:28;;;;;;;16.60;15.80;;;6.00;76.10;;;;;;4958436;28;20035;-91
2022/03/14 06:14:55;;;;;;;18.27;17.37;;;6.00;76.20;;;;;;4954963;28;20054;-89
2022/03/14 06:17:21;;;;;;;18.20;17.33;;;6.00;76.20;;;;;;4959613;28;20034;-90
2022/03/14 06:19:48;;;;;;;17.47;16.67;;;5.90;76.10;;;;;;4959924;28;20503;-91
2022/03/14 06:22:19;;;;;;;17.50;16.70;;;5.80;76.10;;;;;;4943587;28;20506;-92
2022/03/14 06:24:48;;;;;;;16.45;15.68;;;5.80;76.10;;;;;;4975341;28;20037;-91
2022/03/14 06:27:15;;;;;;;16.57;15.80;;;5.70;76.20;;;;;;4943975;28;20042;-91
2022/03/14 06:29:41;;;;;;;16.83;16.03;;;5.70;76.40;;;;;;4975493;28;20027;-91
2022/03/14 06:32:08;;;;;;;16.50;15.73;;;5.60;76.40;;;;;;4942989;28;20066;-89
2022/03/14 06:34:34;;;;;;;16.53;15.73;;;5.60;76.50;;;;;;4976531;28;20026;-90
2022/03/14 06:37:00;;;;;;;16.97;16.17;;;5.50;76.50;;;;;;4954564;28;20042;-90
2022/03/14 06:39:26;;;;;;;18.00;17.00;;;5.60;76.60;;;;;;4957991;28;20046;-92
2022/03/14 06:41:52;;;;;;;17.17;16.37;;;5.50;76.50;;;;;;4974337;28;20105;-90
2022/03/14 06:44:19;;;;;;;16.40;15.70;;;5.60;76.60;;;;;;4958948;28;20047;-94
2022/03/14 06:46:45;;;;;;;17.00;16.20;;;5.60;76.60;;;;;;4971291;28;20046;-92
2022/03/14 06:49:16;;;;;;;17.30;16.50;;;5.50;76.70;;;;;;4974909;28;20042;-91
2022/03/14 06:51:42;;;;;;;17.33;16.52;;;5.50;76.70;;;;;;4959013;28;20042;-86
2022/03/14 06:54:09;;;;;;;17.50;16.70;;;5.50;76.80;;;;;;4974952;28;20043;-87
2022/03/14 06:56:37;;;;;;;18.10;17.20;;;5.50;77.00;;;;;;4974576;28;20030;-89
2022/03/14 06:59:03;;;;;;;17.80;17.00;;;5.50;77.00;;;;;;4972030;28;20043;-87
2022/03/14 07:01:30;;;;;;;17.47;16.67;;;5.50;77.00;;;;;;4942243;28;20034;-84
2022/03/14 07:03:57;;;;;;;17.30;16.50;;;5.60;76.80;;;;;;4971226;28;20038;-84
2022/03/14 07:06:23;;;;;;;17.57;16.77;;;5.70;76.70;;;;;;4970284;28;20035;-85
2022/03/14 07:08:49;;;;;;;18.50;17.60;;;5.80;76.70;;;;;;4955934;28;20031;-84
2022/03/14 07:11:15;;;;;;;18.20;17.40;;;5.90;76.70;;;;;;4971373;28;20045;-84
2022/03/14 07:13:41;;;;;;;17.80;17.00;;;6.00;76.60;;;;;;4973711;28;20035;-88
2022/03/14 07:16:07;;;;;;;17.20;16.40;;;6.20;76.40;;;;;;4954412;28;20512;-84
2022/03/14 07:18:34;;;;;;;17.50;16.70;;;6.50;76.00;;;;;;4970280;28;20038;-84
2022/03/14 07:21:00;;;;;;;17.10;16.30;;;6.70;75.50;;;;;;4972071;28;20030;-89
2022/03/14 07:23:26;;;;;;;18.33;17.52;;;6.90;75.20;;;;;;4970859;28;20023;-89
2022/03/14 07:25:52;;;;;;;17.90;16.83;;;7.10;74.80;;;;;;4957427;28;20526;-87
2022/03/14 07:28:18;;;;;;;17.83;17.02;;;7.20;74.50;;;;;;4940724;28;20039;-86
2022/03/14 07:30:45;;;;;;;17.87;17.07;;;7.30;74.40;;;;;;4970989;28;20499;-88
2022/03/14 07:33:11;;;;;;;18.10;17.30;;;7.50;74.40;;;;;;4968941;28;20082;-88
2022/03/14 07:35:38;;;;;;;18.88;17.98;;;7.60;74.10;;;;;;4950627;28;20031;-93
2022/03/14 07:38:04;;;;;;;20.15;19.17;;;7.80;73.90;;;;;;4952371;28;20054;-91
2022/03/14 07:40:31;;;;;;;20.45;19.45;;;7.80;74.50;;;;;;4969797;28;20480;-90
2022/03/14 07:42:59;;;;;;;19.40;18.50;;;7.90;73.90;;;;;;4968370;28;20050;-92
2022/03/14 07:45:26;;;;;;;20.10;19.10;;;8.00;73.80;;;;;;4967867;28;20047;-89
2022/03/14 07:47:56;;;;;;;20.60;19.60;;;8.10;73.70;;;;;;4970344;28;20041;-89
2022/03/14 07:50:23;;;;;;;19.63;18.73;;;8.20;73.70;;;;;;4952457;28;20062;-89
2022/03/14 07:52:49;;;;;;;20.30;19.23;;;8.20;73.60;;;;;;4956308;28;20053;-93
2022/03/14 07:55:16;;;;;;;20.17;19.17;;;8.30;73.70;;;;;;4968133;28;20031;-92
2022/03/14 07:57:42;;;;;;;20.63;19.65;;;8.40;73.60;;;;;;4965056;28;20038;-92
2022/03/14 08:00:10;;;;;;;1999.90;999.90;;;8.50;73.50;;;;;;4964407;28;20039;-89
2022/03/14 08:02:37;;;;;;;1999.90;999.90;;;8.60;73.40;;;;;;4964450;28;20026;-91
2022/03/14 08:05:04;;;;;;;1999.90;999.90;;;8.70;73.30;;;;;;4933386;28;20128;-91
2022/03/14 08:07:30;;;;;;;1999.90;999.90;;;8.70;73.30;;;;;;4970192;28;20030;-92
2022/03/14 08:09:56;;;;;;;1999.90;999.90;;;8.80;73.30;;;;;;4969548;28;20038;-91
2022/03/14 08:12:23;;;;;;;1999.90;999.90;;;8.90;73.40;;;;;;4970921;28;20026;-90
2022/03/14 08:14:52;;;;;;;1999.90;999.90;;;9.10;73.20;;;;;;4939424;28;20481;-90
2022/03/14 08:17:18;;;;;;;1999.90;999.90;;;9.30;72.90;;;;;;4936451;28;20043;-89
2022/03/14 08:19:45;;;;;;;1999.90;999.90;;;9.50;72.60;;;;;;4956759;28;20317;-91
2022/03/14 08:22:11;;;;;;;1999.90;999.90;;;9.70;72.20;;;;;;4953619;28;20031;-91
2022/03/14 08:24:37;;;;;;;1999.90;999.90;;;9.80;72.00;;;;;;4972495;28;20043;-92
2022/03/14 08:27:04;;;;;;;1999.90;999.90;;;10.00;71.90;;;;;;4969650;28;20401;-86
2022/03/14 08:29:30;;;;;;;1999.90;999.90;;;10.10;71.80;;;;;;4970988;28;20516;-88
2022/03/14 08:32:00;;;;;;;1999.90;999.90;;;10.30;71.60;;;;;;4969436;28;20035;-89
2022/03/14 08:34:27;;;;;;;1999.90;999.90;;;10.40;71.20;;;;;;4954357;28;20035;-89
2022/03/14 08:36:53;;;;;;;1999.90;999.90;;;10.50;71.20;;;;;;4967425;28;20031;-89
2022/03/14 08:39:19;;;;;;;1999.90;999.90;;;10.60;71.30;;;;;;4948949;28;20054;-91
2022/03/14 08:41:45;;;;;;;1999.90;999.90;;;10.80;71.00;;;;;;4966606;28;20031;-91
2022/03/14 08:44:13;;;;;;;1999.90;999.90;;;10.90;70.80;;;;;;4969371;28;20035;-90
2022/03/14 08:46:39;;;;;;;1999.90;999.90;;;10.90;70.50;;;;;;4955054;28;20039;-91
2022/03/14 08:49:05;;;;;;;1999.90;999.90;;;11.00;70.80;;;;;;4969491;28;20031;-90
2022/03/14 08:51:31;;;;;;;1999.90;999.90;;;11.10;70.60;;;;;;4970846;28;20034;-89
2022/03/14 08:53:57;;;;;;;1999.90;999.90;;;11.20;70.50;;;;;;4968358;28;20503;-91
2022/03/14 08:56:23;;;;;;;1999.90;999.90;;;11.30;70.30;;;;;;4969857;28;20035;-91
2022/03/14 08:58:49;;;;;;;1999.90;999.90;;;11.40;70.30;;;;;;4971850;28;20057;-90
2022/03/14 09:01:15;;;;;;;1999.90;999.90;;;11.50;70.20;;;;;;4970673;28;20482;-91
2022/03/14 09:03:42;;;;;;;1999.90;999.90;;;11.70;70.00;;;;;;4954457;28;20045;-87
2022/03/14 09:06:08;;;;;;;1999.90;999.90;;;11.90;69.60;;;;;;4968916;28;20049;-88
2022/03/14 09:08:34;;;;;;;1999.90;999.90;;;11.90;69.50;;;;;;4955003;28;20050;-89
2022/03/14 09:11:01;;;;;;;1999.90;999.90;;;12.00;69.40;;;;;;4969692;28;20046;-90
2022/03/14 09:13:28;;;;;;;1999.90;999.90;;;12.00;69.30;;;;;;4970092;28;20376;-89
2022/03/14 09:15:54;;;;;;;1999.90;999.90;;;12.00;69.50;;;;;;4953799;28;20070;-87
2022/03/14 09:18:21;;;;;;;1999.90;999.90;;;12.00;69.30;;;;;;4954305;28;20031;-89
2022/03/14 09:20:49;;;;;;;1999.90;999.90;;;12.00;69.10;;;;;;4953144;28;20057;-86
2022/03/14 09:23:25;;;;;;;1999.90;999.90;;;12.10;68.90;;;;;;4937974;28;20047;-89
2022/03/14 09:25:52;;;;;;;1999.90;999.90;;;12.20;68.80;;;;;;4953313;28;20038;-91
2022/03/14 09:28:20;;;;;;;1999.90;999.90;;;12.20;68.60;;;;;;4953253;28;20315;-89
2022/03/14 09:30:47;;;;;;;1999.90;999.90;;;12.20;68.50;;;;;;4967647;28;20039;-85
2022/03/14 09:33:13;;;;;;;1999.90;999.90;;;12.20;68.40;;;;;;4946512;28;20399;-91
2022/03/14 09:35:39;;;;;;;1999.90;999.90;;;12.10;68.60;;;;;;4950950;28;20500;-89
2022/03/14 09:38:06;;;;;;;1999.90;999.90;;;12.10;68.50;;;;;;4954474;28;20055;-90
2022/03/14 09:40:32;;;;;;;1999.90;999.90;;;12.10;68.50;;;;;;4967983;28;20036;-89
2022/03/14 09:42:59;;;;;;;1999.90;999.90;;;12.20;68.60;;;;;;4950950;28;20408;-92
2022/03/14 09:45:26;;;;;;;1999.90;999.90;;;12.20;68.30;;;;;;4975594;28;20050;-91
2022/03/14 09:47:57;;;;;;;1999.90;999.90;;;12.30;68.40;;;;;;4958467;28;20043;-90
2022/03/14 09:50:27;;;;;;;1999.90;999.90;;;12.40;68.40;;;;;;4957613;28;20039;-89
2022/03/14 09:52:53;;;;;;;1999.90;999.90;;;12.60;67.80;;;;;;4973553;28;20035;-89
2022/03/14 09:55:20;;;;;;;1999.90;999.90;;;12.70;67.60;;;;;;4958599;28;20495;-88
2022/03/14 09:57:46;;;;;;;1999.90;999.90;;;12.70;67.30;;;;;;4958339;28;20054;-88
2022/03/14 10:00:15;;;;;;;1999.90;999.90;;;12.70;67.20;;;;;;4955543;28;20046;-88
2022/03/14 10:02:42;;;;;;;1999.90;999.90;;;12.70;67.10;;;;;;4949102;28;20380;-91
2022/03/14 10:05:09;;;;;;;1999.90;999.90;;;12.80;67.00;;;;;;4958723;28;20046;-91
2022/03/14 10:07:36;;;;;;;1999.90;999.90;;;12.90;66.60;;;;;;4958679;28;20476;-92
2022/03/14 10:10:06;;;;;;;1999.90;999.90;;;12.90;66.30;;;;;;4940668;28;20043;-90
2022/03/14 10:12:32;;;;;;;1999.90;999.90;;;12.90;66.70;;;;;;4970153;28;20384;-91
2022/03/14 10:15:02;;;;;;;1999.90;999.90;;;13.10;66.30;;;;;;4972558;28;20035;-91
2022/03/14 10:17:28;;;;;;;1999.90;999.90;;;13.20;66.00;;;;;;4972658;28;20038;-91
2022/03/14 10:19:56;;;;;;;1999.90;999.90;;;13.30;65.80;;;;;;4956033;28;20030;-91
2022/03/14 10:22:22;;;;;;;1999.90;999.90;;;13.50;65.60;;;;;;4957431;28;20030;-91
2022/03/14 10:24:53;;;;;;;1999.90;999.90;;;13.60;65.30;;;;;;4936696;28;20504;-91
2022/03/14 10:27:20;;;;;;;1999.90;999.90;;;13.70;65.30;;;;;;4959522;28;20019;-88
2022/03/14 10:29:46;;;;;;;1999.90;999.90;;;13.90;65.00;;;;;;4953909;28;20046;-88
2022/03/14 10:32:48;;;;;;;1999.90;999.90;;;14.00;64.60;;;;;;4967586;28;20039;-88
2022/03/14 10:35:07;;;;;;;1999.90;999.90;;;14.10;64.60;;;;;;4960045;28;20400;-89
2022/03/14 10:37:34;;;;;;;1999.90;999.90;;;14.20;64.60;;;;;;4973120;28;20038;-88
2022/03/14 10:40:03;;;;;;;1999.90;999.90;;;14.30;64.40;;;;;;4942308;28;20068;-91
2022/03/14 10:42:36;;;;;;;1999.90;999.90;;;14.40;63.90;;;;;;4972703;28;20038;-91
2022/03/14 10:45:03;;;;;;;1999.90;999.90;;;14.40;63.80;;;;;;4972480;28;20404;-88
2022/03/14 10:47:29;;;;;;;1999.90;999.90;;;14.50;63.60;;;;;;4956201;28;20026;-89
2022/03/14 10:49:55;;;;;;;1999.90;999.90;;;14.50;63.10;;;;;;4974514;28;20042;-91
2022/03/14 10:52:21;;;;;;;1999.90;999.90;;;14.50;62.60;;;;;;4958069;28;20388;-91
2022/03/14 10:54:48;;;;;;;1999.90;999.90;;;14.50;62.80;;;;;;4970669;28;20027;-87
2022/03/14 10:57:23;;;;;;;1999.90;999.90;;;14.50;62.50;;;;;;4972475;28;20030;-88
2022/03/14 10:59:51;;;;;;;1999.90;999.90;;;14.60;62.10;;;;;;4954168;28;20456;-92
2022/03/14 11:02:22;;;;;;;1999.90;999.90;;;14.60;61.50;;;;;;4953564;28;20388;-90
2022/03/14 11:04:49;;;;;;;1999.90;999.90;;;14.60;61.00;;;;;;4940721;28;20038;-90
2022/03/14 11:07:19;;;;;;;1999.90;999.90;;;14.70;60.80;;;;;;4969015;28;20360;-89
2022/03/14 11:09:47;;;;;;;1999.90;999.90;;;14.80;60.30;;;;;;4954438;28;20027;-90
2022/03/14 11:12:18;;;;;;;1999.90;999.90;;;14.90;60.10;;;;;;4971461;28;20034;-89
2022/03/14 11:14:55;;;;;;;1999.90;999.90;;;15.10;59.70;;;;;;4970538;28;20030;-88
2022/03/14 11:17:22;;;;;;;1999.90;999.90;;;15.10;59.30;;;;;;4951543;28;20042;-87
2022/03/14 11:19:49;;;;;;;1999.90;999.90;;;15.20;59.30;;;;;;4956907;28;20030;-87
2022/03/14 11:22:16;;;;;;;1999.90;999.90;;;15.20;58.50;;;;;;4935873;28;20396;-90
2022/03/14 11:24:46;;;;;;;1999.90;999.90;;;15.20;58.10;;;;;;4955382;28;20030;-89
2022/03/14 11:27:26;;;;;;;1999.90;999.90;;;15.30;57.90;;;;;;4969186;28;20042;-89
2022/03/14 11:29:53;;;;;;;1999.90;999.90;;;15.30;57.30;;;;;;4955318;28;20046;-88
2022/03/14 11:32:20;;;;;;;1999.90;999.90;;;15.40;57.20;;;;;;4971411;28;20039;-87
2022/03/14 11:34:47;;;;;;;1999.90;999.90;;;15.50;57.00;;;;;;4934361;28;20046;-88
2022/03/14 11:37:13;;;;;;;1999.90;999.90;;;15.60;56.50;;;;;;4953820;28;20034;-87
2022/03/14 11:39:40;;;;;;;1999.90;999.90;;;15.70;56.20;;;;;;4954139;28;20049;-83
2022/03/14 11:42:06;;;;;;;1999.90;999.90;;;15.80;55.90;;;;;;4969936;28;20035;-83
2022/03/14 11:44:33;;;;;;;1999.90;999.90;;;15.90;55.80;;;;;;4954525;28;20030;-85
2022/03/14 11:46:59;;;;;;;1999.90;999.90;;;16.00;55.80;;;;;;4952547;28;20069;-80
2022/03/14 11:49:29;;;;;;;1999.90;999.90;;;16.10;55.80;;;;;;4955845;28;20034;-79
2022/03/14 11:52:07;;;;;;;1999.90;999.90;;;16.20;55.40;;;;;;4968471;28;20041;-79
2022/03/14 11:54:40;;;;;;;1999.90;999.90;;;16.30;55.30;;;;;;4972351;28;20027;-79
2022/03/14 11:57:07;;;;;;;1999.90;999.90;;;16.40;54.80;;;;;;4968689;28;20031;-79
2022/03/14 11:59:34;;;;;;;1999.90;999.90;;;16.40;54.20;;;;;;4955119;28;20492;-82
2022/03/14 12:02:00;;;;;;;1999.90;999.90;;;16.40;54.30;;;;;;4954927;28;20047;-82
2022/03/14 12:04:32;;;;;;;1999.90;999.90;;;16.50;54.40;;;;;;4967066;28;20025;-81
2022/03/14 12:06:58;;;;;;;;;;;16.60;54.10;;;;;;4966731;28;20508;-82
2022/03/14 12:09:24;;;;;;;1999.90;999.90;;;16.70;53.80;;;;;;4971191;28;19910;-82
2022/03/14 12:11:57;;;;;;;1999.90;999.90;;;16.70;53.10;;;;;;4970793;28;20042;-82
2022/03/14 12:14:43;;;;;;;1999.90;999.90;;;16.70;52.90;;;;;;4951571;28;20038;-83
2022/03/14 12:17:15;;;;;;;1999.90;999.90;;;16.70;52.90;;;;;;4968521;28;24525;-82
2022/03/14 12:19:42;;;;;;;1999.90;999.90;;;16.80;52.90;;;;;;4972495;28;20035;-81
2022/03/14 12:22:16;;;;;;;1999.90;999.90;;;16.90;52.50;;;;;;4970361;28;20031;-82
2022/03/14 12:24:44;;;;;;;1999.90;999.90;;;17.00;52.30;;;;;;4969922;28;20046;-82